BAW125 RJTT-KTPA
Flight info
| Callsign | BAW125 |
|---|---|
| Flight time | N/A |
| Altitude | 31000 |
| Route | AGRIS Y11 NAVER Y139 ASIBE Y116 AWE Y114 ANIMO/K0913F310 T565 PAKLI A956 UMOLA T564 NAMUL/K0920F330 T564 RUSOR/N0487F330 B241 ROCET R338 OME J122 GAL NCA19 CHAPO/N0492F350 DCT 63N130W DCT YFS J521 YSM DCT PETMA Q963 YVC Q919 KENRU Q906 OTLUR/N0494F370 Q834 DLH J89 BAE J101 OBK J89 IIU Q79 KAILL Q118 THRSR Q79 IISLY DCT KRVUR DADES2 |
| Aircraft | B77W/H-SDE1E2E3FGHIJ2J3J4J5M1RWXY/LB1D1 |
Departure
| Time | N/A |
|---|---|
| Airport | Tokyo Haneda International Airport (RJTT) |
Arrival
| Time | 2026-05-06 14:33 |
|---|---|
| Airport | Tampa International Airport (KTPA) |
| Time | Latitude | Longitude | Altitude | Speed | Heading |
|---|---|---|---|---|---|
| 2026-05-06 14:03 | 30.62665 | -83.01054 | 37095 ft | 563 kts | 133° |
| 2026-05-06 14:03 | 30.60181 | -82.97596 | 37086 ft | 563 kts | 133° |
| 2026-05-06 14:04 | 30.55155 | -82.90603 | 37088 ft | 562 kts | 133° |
| 2026-05-06 14:04 | 30.50176 | -82.83674 | 37096 ft | 561 kts | 133° |
| 2026-05-06 14:05 | 30.45164 | -82.76709 | 37107 ft | 561 kts | 133° |
| 2026-05-06 14:05 | 30.40182 | -82.69801 | 37110 ft | 561 kts | 133° |
| 2026-05-06 14:06 | 30.35158 | -82.62846 | 37116 ft | 561 kts | 133° |
| 2026-05-06 14:06 | 30.30166 | -82.55948 | 37109 ft | 561 kts | 133° |
| 2026-05-06 14:07 | 30.25146 | -82.49020 | 37112 ft | 561 kts | 133° |
| 2026-05-06 14:07 | 30.20039 | -82.42211 | 37101 ft | 554 kts | 142° |
| 2026-05-06 14:08 | 30.16928 | -82.39658 | 37115 ft | 541 kts | 159° |
| 2026-05-06 14:08 | 30.13518 | -82.38022 | 37125 ft | 532 kts | 172° |
| 2026-05-06 14:08 | 30.09918 | -82.37288 | 37116 ft | 517 kts | 187° |
| 2026-05-06 14:08 | 30.06304 | -82.37199 | 37144 ft | 519 kts | 187° |
| 2026-05-06 14:09 | 29.99054 | -82.36957 | 37132 ft | 526 kts | 186° |
| 2026-05-06 14:09 | 29.91773 | -82.36569 | 36667 ft | 525 kts | 185° |
| 2026-05-06 14:10 | 29.88084 | -82.36357 | 35900 ft | 527 kts | 185° |
| 2026-05-06 14:10 | 29.84467 | -82.36147 | 35076 ft | 528 kts | 185° |
| 2026-05-06 14:10 | 29.80766 | -82.35937 | 34175 ft | 532 kts | 185° |
| 2026-05-06 14:10 | 29.77055 | -82.35730 | 33135 ft | 535 kts | 185° |
| 2026-05-06 14:11 | 29.74583 | -82.35593 | 32473 ft | 537 kts | 185° |
| 2026-05-06 14:11 | 29.69609 | -82.35315 | 31131 ft | 539 kts | 184° |
| 2026-05-06 14:11 | 29.65845 | -82.35104 | 30310 ft | 538 kts | 184° |
| 2026-05-06 14:11 | 29.63375 | -82.34964 | 29818 ft | 534 kts | 184° |
| 2026-05-06 14:12 | 29.58448 | -82.34688 | 28827 ft | 526 kts | 184° |
| 2026-05-06 14:12 | 29.54840 | -82.34487 | 28167 ft | 520 kts | 184° |
| 2026-05-06 14:12 | 29.51218 | -82.34288 | 27502 ft | 514 kts | 184° |
| 2026-05-06 14:12 | 29.48860 | -82.34159 | 27090 ft | 511 kts | 183° |
| 2026-05-06 14:13 | 29.44148 | -82.33901 | 26255 ft | 504 kts | 183° |
| 2026-05-06 14:13 | 29.40694 | -82.33711 | 25629 ft | 500 kts | 182° |
| 2026-05-06 14:13 | 29.37229 | -82.33433 | 25017 ft | 497 kts | 180° |
| 2026-05-06 14:13 | 29.33787 | -82.33039 | 24386 ft | 494 kts | 178° |
| 2026-05-06 14:14 | 29.31522 | -82.32748 | 23975 ft | 493 kts | 178° |
| 2026-05-06 14:14 | 29.27013 | -82.32152 | 23064 ft | 488 kts | 177° |
| 2026-05-06 14:14 | 29.23656 | -82.31717 | 22414 ft | 483 kts | 178° |
| 2026-05-06 14:14 | 29.21404 | -82.31433 | 21998 ft | 480 kts | 178° |
| 2026-05-06 14:15 | 29.18133 | -82.31032 | 21395 ft | 475 kts | 178° |
| 2026-05-06 14:15 | 29.14834 | -82.30636 | 20805 ft | 471 kts | 178° |
| 2026-05-06 14:15 | 29.11584 | -82.30251 | 20211 ft | 467 kts | 178° |
| 2026-05-06 14:15 | 29.08366 | -82.29871 | 19628 ft | 464 kts | 178° |
| 2026-05-06 14:16 | 29.05196 | -82.29496 | 19032 ft | 461 kts | 177° |
| 2026-05-06 14:16 | 29.02006 | -82.29119 | 18434 ft | 459 kts | 177° |
| 2026-05-06 14:16 | 28.98828 | -82.28744 | 17754 ft | 457 kts | 177° |
| 2026-05-06 14:16 | 28.95664 | -82.28368 | 17163 ft | 453 kts | 176° |
| 2026-05-06 14:17 | 28.92578 | -82.28001 | 16639 ft | 447 kts | 176° |
| 2026-05-06 14:17 | 28.89484 | -82.27635 | 16031 ft | 444 kts | 176° |
| 2026-05-06 14:17 | 28.86417 | -82.27273 | 15437 ft | 442 kts | 176° |
| 2026-05-06 14:17 | 28.83360 | -82.26909 | 14915 ft | 438 kts | 176° |
| 2026-05-06 14:18 | 28.80369 | -82.26557 | 14525 ft | 432 kts | 175° |
| 2026-05-06 14:18 | 28.77398 | -82.26207 | 14011 ft | 427 kts | 175° |
| 2026-05-06 14:18 | 28.74424 | -82.25856 | 13208 ft | 429 kts | 175° |
| 2026-05-06 14:18 | 28.71491 | -82.25644 | 12817 ft | 420 kts | 180° |
| 2026-05-06 14:19 | 28.68606 | -82.25638 | 12474 ft | 410 kts | 181° |
| 2026-05-06 14:19 | 28.65766 | -82.25647 | 12171 ft | 403 kts | 181° |
| 2026-05-06 14:19 | 28.63012 | -82.25632 | 11982 ft | 392 kts | 180° |
| 2026-05-06 14:19 | 28.60331 | -82.25586 | 11895 ft | 377 kts | 180° |
| 2026-05-06 14:20 | 28.57749 | -82.25532 | 11838 ft | 364 kts | 180° |
| 2026-05-06 14:20 | 28.55250 | -82.25482 | 11749 ft | 353 kts | 180° |
| 2026-05-06 14:20 | 28.52830 | -82.25433 | 11702 ft | 341 kts | 180° |
| 2026-05-06 14:20 | 28.50513 | -82.25394 | 11636 ft | 332 kts | 180° |
| 2026-05-06 14:21 | 28.48221 | -82.25365 | 11574 ft | 325 kts | 180° |
| 2026-05-06 14:21 | 28.45976 | -82.25341 | 11431 ft | 318 kts | 180° |
| 2026-05-06 14:21 | 28.43807 | -82.25290 | 11281 ft | 310 kts | 180° |
| 2026-05-06 14:21 | 28.41642 | -82.25267 | 11096 ft | 305 kts | 180° |
| 2026-05-06 14:22 | 28.39553 | -82.25251 | 10893 ft | 301 kts | 180° |
| 2026-05-06 14:22 | 28.37465 | -82.25265 | 10588 ft | 296 kts | 186° |
| 2026-05-06 14:22 | 28.35514 | -82.25966 | 10143 ft | 295 kts | 214° |
| 2026-05-06 14:22 | 28.33935 | -82.27382 | 9787 ft | 291 kts | 222° |
| 2026-05-06 14:23 | 28.32397 | -82.28877 | 9490 ft | 290 kts | 222° |
| 2026-05-06 14:23 | 28.30892 | -82.30371 | 9167 ft | 284 kts | 229° |
| 2026-05-06 14:23 | 28.29910 | -82.32283 | 8655 ft | 283 kts | 257° |
| 2026-05-06 14:23 | 28.29608 | -82.34440 | 8345 ft | 278 kts | 265° |
| 2026-05-06 14:24 | 28.29370 | -82.36624 | 8039 ft | 277 kts | 265° |
| 2026-05-06 14:24 | 28.29124 | -82.38793 | 7788 ft | 273 kts | 264° |
| 2026-05-06 14:24 | 28.28899 | -82.40902 | 7628 ft | 265 kts | 268° |
| 2026-05-06 14:24 | 28.28893 | -82.42960 | 7365 ft | 262 kts | 274° |
| 2026-05-06 14:25 | 28.28989 | -82.45020 | 7151 ft | 261 kts | 276° |
| 2026-05-06 14:25 | 28.29103 | -82.47073 | 6855 ft | 260 kts | 275° |
| 2026-05-06 14:25 | 28.29207 | -82.49123 | 6589 ft | 260 kts | 275° |
| 2026-05-06 14:25 | 28.29289 | -82.51171 | 6342 ft | 259 kts | 273° |
| 2026-05-06 14:26 | 28.29355 | -82.53210 | 6108 ft | 256 kts | 274° |
| 2026-05-06 14:26 | 28.29438 | -82.55206 | 5906 ft | 255 kts | 274° |
| 2026-05-06 14:26 | 28.29474 | -82.57218 | 5528 ft | 254 kts | 264° |
| 2026-05-06 14:26 | 28.28864 | -82.59099 | 5164 ft | 257 kts | 233° |
| 2026-05-06 14:27 | 28.27508 | -82.60366 | 4944 ft | 253 kts | 202° |
| 2026-05-06 14:27 | 28.25832 | -82.60677 | 4842 ft | 242 kts | 174° |
| 2026-05-06 14:27 | 28.24214 | -82.60337 | 4754 ft | 230 kts | 165° |
| 2026-05-06 14:27 | 28.22769 | -82.59765 | 4717 ft | 215 kts | 158° |
| 2026-05-06 14:28 | 28.21484 | -82.59011 | 4549 ft | 202 kts | 142° |
| 2026-05-06 14:28 | 28.20425 | -82.58012 | 4360 ft | 194 kts | 139° |
| 2026-05-06 14:28 | 28.19432 | -82.57009 | 4133 ft | 190 kts | 138° |
| 2026-05-06 14:28 | 28.18445 | -82.55993 | 3748 ft | 191 kts | 138° |
| 2026-05-06 14:29 | 28.17483 | -82.54977 | 3322 ft | 191 kts | 138° |
| 2026-05-06 14:29 | 28.16443 | -82.54050 | 2812 ft | 191 kts | 161° |
| 2026-05-06 14:29 | 28.15123 | -82.53834 | 2432 ft | 194 kts | 175° |
| 2026-05-06 14:29 | 28.13745 | -82.53720 | 2108 ft | 198 kts | 177° |
| 2026-05-06 14:30 | 28.12387 | -82.53702 | 2029 ft | 190 kts | 180° |
| 2026-05-06 14:30 | 28.11116 | -82.53738 | 1979 ft | 177 kts | 181° |
| 2026-05-06 14:30 | 28.09942 | -82.53782 | 1981 ft | 160 kts | 180° |
| 2026-05-06 14:30 | 28.09047 | -82.53807 | 1909 ft | 158 kts | 180° |
| 2026-05-06 14:31 | 28.07971 | -82.53844 | 1693 ft | 148 kts | 179° |
| 2026-05-06 14:31 | 28.06980 | -82.53879 | 1513 ft | 145 kts | 180° |
| 2026-05-06 14:31 | 28.05971 | -82.53910 | 1328 ft | 144 kts | 181° |
| 2026-05-06 14:31 | 28.04972 | -82.53946 | 1127 ft | 142 kts | 180° |
| 2026-05-06 14:32 | 28.03976 | -82.53979 | 952 ft | 144 kts | 181° |
| 2026-05-06 14:32 | 28.02966 | -82.54013 | 747 ft | 144 kts | 180° |
| 2026-05-06 14:32 | 28.01969 | -82.54046 | 574 ft | 141 kts | 181° |
| 2026-05-06 14:32 | 28.01012 | -82.54080 | 388 ft | 139 kts | 181° |
| 2026-05-06 14:33 | 28.00026 | -82.54115 | 215 ft | 143 kts | 180° |
| 2026-05-06 14:33 | 27.99036 | -82.54147 | 52 ft | 140 kts | 180° |
| 2026-05-06 14:33 | 27.98185 | -82.54172 | 51 ft | 97 kts | 181° |
| 2026-05-06 14:33 | 27.97804 | -82.54181 | 48 ft | 35 kts | 170° |
| 2026-05-06 14:34 | 27.97632 | -82.54078 | 47 ft | 19 kts | 137° |
| 2026-05-06 14:34 | 27.97614 | -82.54052 | 48 ft | 1 kts | 124° |
| 2026-05-06 14:34 | 27.97609 | -82.54043 | 45 ft | 2 kts | 121° |
| 2026-05-06 14:34 | 27.97605 | -82.54036 | 48 ft | 0 kts | 120° |
| 2026-05-06 14:35 | 27.97599 | -82.54011 | 45 ft | 8 kts | 102° |
| 2026-05-06 14:35 | 27.97592 | -82.53939 | 46 ft | 10 kts | 96° |
| 2026-05-06 14:36 | 27.97570 | -82.53853 | 49 ft | 12 kts | 119° |
| 2026-05-06 14:36 | 27.97526 | -82.53772 | 49 ft | 5 kts | 122° |
| 2026-05-06 14:36 | 27.97511 | -82.53729 | 49 ft | 6 kts | 85° |
| 2026-05-06 14:36 | 27.97538 | -82.53697 | 48 ft | 4 kts | 38° |
| 2026-05-06 14:37 | 27.97540 | -82.53694 | 48 ft | 0 kts | 36° |
| 2026-05-06 14:38 | 27.97570 | -82.53665 | 45 ft | 0 kts | 33° |